首页
METAR-TAF:

METAR-TAF

机场 :

博卡拉頓, 佛罗里达州, 美国

纬度: 26-22-43N, 经度: 080-06-28W, 海拔: 4米

当前天气观测

该预报发布于2小时和22分钟前的03:47 UTC
风速12节,风向,有时为18节阵风
温度 20°C
湿度 68%
气压 1023 hPa
能見度: 12.9公里
散云层高于3700英尺

METAR: KBCT 230347Z 08012G18KT 8SM SCT037 20/14 A3021

时间: 01:09 (06:09 UTC)


TAF: 丢失

超过4000个机场的气象观测和天气预报(METAR&TAF报告)。

可查询的气象台以黄色和红色小点在地图上表示。

将鼠标移到小点上方,可查看气象台名称。

然后点击查看天气观测和预报。

如需切换地图:点击带黑十字的绿色按钮放大地图;点击带横线的绿色按钮缩小地图;或者点击绿色箭头查看邻近地区的地图。


METAR-TAF: